Check out our new BloomSky Weather System.

Active alerts

Houston, TX
  Details for Houston, TX Dense Fog Advisory


Thunder radar  blitzortung!


Rain radar more information rain snow radar


Visit our other weather sites:

Template documentation
and downloads

And another site



Weather Underground History page Text

Daily Summary for June 6, 2017 Units:  English    Metric   Both
« Previous Day
Next Day »
Daily Weekly Monthly Yearly Custom
  High: Low: Average:
Temperature: 87.6 °F 71.4 °F 78.5 °F
Dew Point: 76.1 °F 70.7 °F 73 °F
Humidity: 99 % 62 % 84 %
Wind Speed: 11.0 mph 0.0 mph 2.5 mph
Wind Gust: 18.0 mph - -
Wind:- - WNW
Pressure: 29.81 in 29.72 in -
Precipitation: 0.14 in    
Historical Graphs
 
 
Tabular Data for June 6, 2017
Time Temperature Dew Point Pressure Wind Wind Speed Wind Gust Humidity Rainfall Rate (Hourly)
00:00 73.4 °F 72.0 °F 29.74 in Calm   1.0 mph 95 % 0.00 in
00:05 73.6 °F 72.1 °F 29.74 in Calm   1.0 mph 95 % 0.00 in
00:10 73.6 °F 72.1 °F 29.74 in Calm   1.0 mph 95 % 0.00 in
00:15 73.4 °F 72.0 °F 29.74 in Calm   1.0 mph 95 % 0.00 in
00:20 73.2 °F 71.8 °F 29.74 in Calm     95 % 0.00 in
00:25 73.0 °F 71.6 °F 29.74 in Calm     95 % 0.00 in
00:30 73.0 °F 71.6 °F 29.73 in Calm     95 % 0.00 in
00:35 72.7 °F 71.2 °F 29.73 in Calm     95 % 0.00 in
00:40 72.7 °F 71.2 °F 29.74 in Calm     95 % 0.00 in
00:45 72.7 °F 71.2 °F 29.74 in Calm     95 % 0.00 in
00:50 72.7 °F 71.2 °F 29.74 in Calm     95 % 0.00 in
00:55 72.7 °F 71.2 °F 29.74 in Calm     95 % 0.00 in
01:00 72.7 °F 71.2 °F 29.74 in Calm     95 % 0.00 in
01:05 72.5 °F 71.1 °F 29.74 in Calm     95 % 0.00 in
01:10 72.3 °F 71.1 °F 29.74 in Calm     96 % 0.00 in
01:15 72.3 °F 71.1 °F 29.74 in Calm     96 % 0.00 in
01:20 72.3 °F 71.1 °F 29.74 in Calm     96 % 0.00 in
01:25 72.7 °F 71.8 °F 29.74 in Calm     97 % 0.00 in
01:30 72.9 °F 72.0 °F 29.74 in Calm   1.0 mph 97 % 0.00 in
01:35 72.9 °F 71.6 °F 29.74 in Calm   1.0 mph 96 % 0.00 in
01:40 72.9 °F 71.6 °F 29.74 in Calm   1.0 mph 96 % 0.00 in
01:45 72.9 °F 72.0 °F 29.74 in Calm   1.0 mph 97 % 0.00 in
01:50 73.0 °F 72.1 °F 29.74 in Calm   1.0 mph 97 % 0.00 in
02:00 73.0 °F 72.1 °F 29.74 in NW 1.0 mph 2.0 mph 97 % 0.00 in
02:05 73.0 °F 72.1 °F 29.74 in NW 1.0 mph 2.0 mph 97 % 0.00 in
02:10 73.0 °F 72.1 °F 29.74 in Calm   2.0 mph 97 % 0.00 in
02:15 72.9 °F 72.0 °F 29.74 in Calm   2.0 mph 97 % 0.00 in
02:20 72.9 °F 72.0 °F 29.74 in Calm   1.0 mph 97 % 0.00 in
02:25 72.7 °F 71.8 °F 29.74 in Calm   1.0 mph 97 % 0.00 in
02:31 72.7 °F 71.8 °F 29.74 in Calm   1.0 mph 97 % 0.00 in
02:36 72.5 °F 71.6 °F 29.74 in Calm     97 % 0.00 in
02:41 72.3 °F 71.4 °F 29.74 in Calm     97 % 0.00 in
02:46 72.3 °F 71.4 °F 29.74 in Calm     97 % 0.00 in
02:51 72.3 °F 71.4 °F 29.74 in Calm   1.0 mph 97 % 0.00 in
02:56 72.1 °F 71.2 °F 29.73 in Calm   1.0 mph 97 % 0.00 in
03:01 72.1 °F 71.2 °F 29.73 in Calm   1.0 mph 97 % 0.00 in
03:06 72.1 °F 71.2 °F 29.73 in Calm   1.0 mph 97 % 0.00 in
03:11 72.0 °F 71.1 °F 29.73 in Calm   1.0 mph 97 % 0.00 in
03:16 72.0 °F 71.1 °F 29.73 in Calm   1.0 mph 97 % 0.00 in
03:21 72.0 °F 71.1 °F 29.73 in Calm     97 % 0.00 in
03:30 72.0 °F 71.1 °F 29.73 in Calm     97 % 0.00 in
03:31 71.8 °F 70.9 °F 29.73 in Calm     97 % 0.00 in
03:36 71.8 °F 70.9 °F 29.73 in Calm     97 % 0.00 in
03:41 71.8 °F 70.9 °F 29.73 in Calm   1.0 mph 97 % 0.00 in
03:46 71.8 °F 70.9 °F 29.73 in Calm   1.0 mph 97 % 0.00 in
03:51 71.6 °F 70.7 °F 29.73 in Calm   1.0 mph 97 % 0.00 in
03:56 71.4 °F 70.9 °F 29.73 in Calm     98 % 0.00 in
04:01 71.6 °F 71.1 °F 29.73 in Calm     98 % 0.00 in
04:06 71.6 °F 71.1 °F 29.73 in Calm     98 % 0.00 in
04:11 71.6 °F 71.1 °F 29.73 in Calm     98 % 0.00 in
04:16 71.8 °F 71.2 °F 29.73 in Calm   1.0 mph 98 % 0.00 in
04:21 71.8 °F 71.2 °F 29.73 in Calm   1.0 mph 98 % 0.00 in
04:26 72.0 °F 71.4 °F 29.74 in Calm   1.0 mph 98 % 0.00 in
04:31 72.0 °F 71.4 °F 29.74 in Calm   1.0 mph 98 % 0.00 in
04:36 72.0 °F 71.4 °F 29.74 in NW 2.0 mph 2.0 mph 98 % 0.00 in
04:41 72.1 °F 71.6 °F 29.73 in WNW 1.0 mph 2.0 mph 98 % 0.00 in
04:46 72.1 °F 71.6 °F 29.73 in Calm   2.0 mph 98 % 0.00 in
04:51 72.3 °F 71.8 °F 29.73 in NW 1.0 mph 2.0 mph 98 % 0.00 in
04:56 72.3 °F 71.8 °F 29.73 in Calm   2.0 mph 98 % 0.00 in
05:01 72.3 °F 71.8 °F 29.73 in Calm   2.0 mph 98 % 0.00 in
05:06 72.1 °F 71.6 °F 29.73 in NW 1.0 mph 2.0 mph 98 % 0.00 in
05:07 72.3 °F 71.8 °F 29.73 in Calm   2.0 mph 98 % 0.00 in
05:12 72.3 °F 71.8 °F 29.73 in Calm   2.0 mph 98 % 0.00 in
05:32 72.3 °F 71.8 °F 29.73 in Calm   3.0 mph 98 % 0.00 in
05:37 72.3 °F 71.8 °F 29.73 in Calm   2.0 mph 98 % 0.00 in
05:42 72.1 °F 71.6 °F 29.73 in Calm   2.0 mph 98 % 0.00 in
05:44 72.1 °F 71.6 °F 29.73 in Calm   2.0 mph 98 % 0.00 in
05:49 72.1 °F 71.6 °F 29.73 in Calm     98 % 0.00 in
05:54 72.1 °F 71.6 °F 29.73 in Calm   2.0 mph 98 % 0.00 in
05:59 72.1 °F 71.6 °F 29.74 in NNW 1.0 mph 2.0 mph 98 % 0.00 in
06:04 72.1 °F 71.6 °F 29.74 in Calm   2.0 mph 98 % 0.00 in
06:09 72.1 °F 71.6 °F 29.74 in Calm   3.0 mph 98 % 0.00 in
06:14 72.1 °F 71.6 °F 29.74 in Calm   3.0 mph 98 % 0.00 in
06:19 72.1 °F 71.6 °F 29.74 in WNW 1.0 mph 3.0 mph 98 % 0.00 in
06:24 72.1 °F 71.6 °F 29.75 in Calm   2.0 mph 98 % 0.00 in
06:29 72.1 °F 71.6 °F 29.75 in Calm   2.0 mph 98 % 0.00 in
06:34 72.0 °F 71.4 °F 29.75 in Calm   2.0 mph 98 % 0.00 in
06:40 72.0 °F 71.4 °F 29.75 in Calm   2.0 mph 98 % 0.00 in
06:45 71.8 °F 71.2 °F 29.75 in Calm     98 % 0.00 in
06:50 71.8 °F 71.2 °F 29.75 in Calm     98 % 0.00 in
06:54 71.8 °F 71.4 °F 29.75 in Calm     99 % 0.00 in
06:59 71.8 °F 71.4 °F 29.75 in Calm   1.0 mph 99 % 0.00 in
07:05 72.0 °F 71.6 °F 29.75 in NW 2.0 mph 2.0 mph 99 % 0.00 in
07:10 72.1 °F 71.8 °F 29.75 in NW 1.0 mph 2.0 mph 99 % 0.00 in
07:15 72.3 °F 72.0 °F 29.76 in Calm   3.0 mph 99 % 0.00 in
07:20 72.7 °F 72.1 °F 29.76 in WNW 1.0 mph 3.0 mph 98 % 0.00 in
07:25 72.7 °F 72.1 °F 29.76 in NW 2.0 mph 5.0 mph 98 % 0.00 in
07:30 72.7 °F 72.1 °F 29.76 in NNW 1.0 mph 5.0 mph 98 % 0.00 in
07:35 72.9 °F 72.3 °F 29.77 in NW 1.0 mph 5.0 mph 98 % 0.00 in
07:40 73.2 °F 72.3 °F 29.77 in Calm   4.0 mph 97 % 0.00 in
07:45 73.2 °F 72.3 °F 29.77 in WNW 1.0 mph 5.0 mph 97 % 0.00 in
07:50 73.6 °F 72.7 °F 29.76 in NNW 3.0 mph 5.0 mph 97 % 0.00 in
07:55 73.8 °F 72.5 °F 29.76 in WNW 4.0 mph 5.0 mph 96 % 0.00 in
08:00 73.9 °F 72.7 °F 29.76 in NW 2.0 mph 6.0 mph 96 % 0.00 in
08:05 74.5 °F 73.2 °F 29.76 in WNW 2.0 mph 6.0 mph 96 % 0.00 in
08:10 74.8 °F 73.0 °F 29.76 in NW 3.0 mph 6.0 mph 94 % 0.00 in
08:15 75.0 °F 73.2 °F 29.76 in NW 1.0 mph 5.0 mph 94 % 0.00 in
08:20 75.0 °F 72.9 °F 29.77 in NW 2.0 mph 6.0 mph 93 % 0.00 in
08:25 75.6 °F 73.0 °F 29.77 in NNW 4.0 mph 7.0 mph 92 % 0.00 in
08:30 75.9 °F 73.4 °F 29.77 in NNW 3.0 mph 7.0 mph 92 % 0.00 in
08:35 76.3 °F 73.4 °F 29.77 in NW 6.0 mph 7.0 mph 91 % 0.00 in
08:40 76.6 °F 73.4 °F 29.77 in NW 5.0 mph 7.0 mph 90 % 0.00 in
08:45 77.2 °F 73.9 °F 29.77 in NW 3.0 mph 7.0 mph 90 % 0.00 in
08:50 77.5 °F 74.1 °F 29.77 in NNW 1.0 mph 6.0 mph 89 % 0.00 in
08:55 78.1 °F 74.3 °F 29.78 in Calm   6.0 mph 88 % 0.00 in
09:00 78.3 °F 74.5 °F 29.77 in NNW 1.0 mph 6.0 mph 88 % 0.00 in
09:05 78.4 °F 74.7 °F 29.77 in NNW 1.0 mph 5.0 mph 88 % 0.00 in
09:10 79.0 °F 74.5 °F 29.77 in NNW 3.0 mph 4.0 mph 86 % 0.00 in
09:15 79.2 °F 75.0 °F 29.77 in Calm   4.0 mph 87 % 0.00 in
09:20 79.5 °F 74.3 °F 29.77 in North 1.0 mph 5.0 mph 84 % 0.00 in
09:25 80.2 °F 75.4 °F 29.77 in NNW 2.0 mph 5.0 mph 85 % 0.00 in
09:30 80.8 °F 75.2 °F 29.77 in NW 2.0 mph 7.0 mph 83 % 0.00 in
09:35 80.8 °F 75.6 °F 29.77 in NW 2.0 mph 7.0 mph 84 % 0.00 in
09:37 81.0 °F 75.7 °F 29.77 in NNW 3.0 mph 7.0 mph 84 % 0.00 in
09:42 81.1 °F 75.2 °F 29.77 in NNW 4.0 mph 7.0 mph 82 % 0.00 in
09:48 81.1 °F 75.2 °F 29.77 in NNW 3.0 mph 8.0 mph 82 % 0.00 in
09:53 81.3 °F 75.7 °F 29.77 in WNW 3.0 mph 8.0 mph 83 % 0.00 in
09:57 81.9 °F 76.1 °F 29.77 in NW 2.0 mph 8.0 mph 83 % 0.00 in
10:03 82.0 °F 75.9 °F 29.77 in West 1.0 mph 8.0 mph 82 % 0.00 in
10:08 82.4 °F 75.6 °F 29.77 in NW 4.0 mph 8.0 mph 80 % 0.00 in
10:13 82.6 °F 75.7 °F 29.77 in North 4.0 mph 7.0 mph 80 % 0.00 in
10:18 82.9 °F 75.0 °F 29.76 in NW 5.0 mph 7.0 mph 77 % 0.00 in
10:23 82.6 °F 74.7 °F 29.76 in NW 4.0 mph 11.0 mph 77 % 0.00 in
10:28 82.8 °F 75.6 °F 29.76 in NNW 2.0 mph 11.0 mph 79 % 0.00 in
10:33 83.5 °F 75.6 °F 29.76 in NW 7.0 mph 11.0 mph 77 % 0.00 in
10:34 83.3 °F 74.5 °F 29.76 in NW 1.0 mph 11.0 mph 75 % 0.00 in
10:39 82.6 °F 74.3 °F 29.77 in WNW 4.0 mph 8.0 mph 76 % 0.00 in
10:49 82.8 °F 75.2 °F 29.76 in NW 8.0 mph 9.0 mph 78 % 0.00 in
10:54 82.9 °F 74.7 °F 29.77 in NNW 7.0 mph 10.0 mph 76 % 0.00 in
10:59 82.4 °F 74.8 °F 29.77 in NW 11.0 mph 11.0 mph 78 % 0.00 in
11:04 82.0 °F 74.5 °F 29.77 in North 4.0 mph 11.0 mph 78 % 0.00 in
11:09 82.2 °F 74.3 °F 29.76 in WNW 6.0 mph 16.0 mph 77 % 0.00 in
11:14 81.9 °F 74.7 °F 29.77 in WNW 6.0 mph 16.0 mph 79 % 0.00 in
11:20 82.6 °F 74.7 °F 29.76 in WNW 4.0 mph 16.0 mph 77 % 0.00 in
11:21 82.4 °F 74.1 °F 29.77 in NW 6.0 mph 14.0 mph 76 % 0.00 in
11:26 81.9 °F 74.3 °F 29.77 in NW 4.0 mph 14.0 mph 78 % 0.00 in
11:31 82.0 °F 74.1 °F 29.77 in NW 4.0 mph 14.0 mph 77 % 0.00 in
11:36 82.4 °F 73.8 °F 29.77 in North 5.0 mph 14.0 mph 75 % 0.00 in
11:41 82.9 °F 74.7 °F 29.77 in NNW 4.0 mph 13.0 mph 76 % 0.00 in
11:46 83.5 °F 74.7 °F 29.77 in WNW 7.0 mph 13.0 mph 75 % 0.00 in
11:51 82.8 °F 74.5 °F 29.77 in North 8.0 mph 13.0 mph 76 % 0.00 in
11:56 82.4 °F 73.8 °F 29.77 in NW 6.0 mph 12.0 mph 75 % 0.00 in
12:01 82.8 °F 74.5 °F 29.77 in NW 9.0 mph 12.0 mph 76 % 0.00 in
12:06 82.6 °F 73.4 °F 29.77 in NNW 6.0 mph 12.0 mph 74 % 0.00 in
12:11 82.9 °F 74.7 °F 29.77 in WNW 3.0 mph 12.0 mph 76 % 0.00 in
12:16 82.9 °F 73.4 °F 29.77 in NW 10.0 mph 14.0 mph 73 % 0.00 in
12:21 82.9 °F 74.1 °F 29.77 in NNW 3.0 mph 14.0 mph 75 % 0.00 in
12:26 83.3 °F 73.4 °F 29.77 in NW 7.0 mph 14.0 mph 72 % 0.00 in
12:31 83.3 °F 73.4 °F 29.78 in NW 4.0 mph 13.0 mph 72 % 0.00 in
12:36 83.1 °F 73.6 °F 29.78 in NW 10.0 mph 14.0 mph 73 % 0.00 in
12:41 82.4 °F 73.2 °F 29.78 in NW 11.0 mph 14.0 mph 74 % 0.00 in
12:46 82.2 °F 74.3 °F 29.77 in WNW 6.0 mph 14.0 mph 77 % 0.00 in
12:51 82.4 °F 73.8 °F 29.77 in NW 2.0 mph 14.0 mph 75 % 0.00 in
12:56 82.0 °F 74.1 °F 29.77 in NW 7.0 mph 14.0 mph 77 % 0.00 in
13:01 81.5 °F 73.9 °F 29.77 in NW 6.0 mph 14.0 mph 78 % 0.00 in
13:06 81.7 °F 73.8 °F 29.77 in NW 6.0 mph 14.0 mph 77 % 0.00 in
13:11 81.7 °F 73.8 °F 29.77 in NW 6.0 mph 13.0 mph 77 % 0.00 in
13:12 81.9 °F 73.9 °F 29.77 in NW 7.0 mph 13.0 mph 77 % 0.00 in
13:17 82.2 °F 73.6 °F 29.77 in NNW 4.0 mph 13.0 mph 75 % 0.00 in
13:22 82.2 °F 73.9 °F 29.76 in NW 4.0 mph 13.0 mph 76 % 0.00 in
13:27 82.4 °F 74.1 °F 29.76 in WNW 3.0 mph 11.0 mph 76 % 0.00 in
13:32 82.8 °F 73.9 °F 29.76 in NW 2.0 mph 11.0 mph 75 % 0.00 in
13:37 82.8 °F 73.6 °F 29.76 in North 6.0 mph 11.0 mph 74 % 0.00 in
13:42 82.8 °F 73.6 °F 29.76 in WNW 4.0 mph 15.0 mph 74 % 0.00 in
13:47 83.5 °F 73.6 °F 29.76 in WNW 5.0 mph 15.0 mph 72 % 0.00 in
13:52 82.9 °F 73.0 °F 29.76 in NNW 7.0 mph 15.0 mph 72 % 0.00 in
13:57 83.1 °F 73.6 °F 29.76 in NW 6.0 mph 13.0 mph 73 % 0.00 in
14:02 83.5 °F 73.6 °F 29.76 in NNW 4.0 mph 13.0 mph 72 % 0.00 in
14:07 83.7 °F 73.2 °F 29.75 in WNW 4.0 mph 13.0 mph 71 % 0.00 in
14:12 83.3 °F 72.9 °F 29.75 in NNE 4.0 mph 11.0 mph 71 % 0.00 in
14:17 83.8 °F 73.8 °F 29.75 in NW 5.0 mph 11.0 mph 72 % 0.00 in
14:22 83.8 °F 73.4 °F 29.75 in NW 7.0 mph 13.0 mph 71 % 0.00 in
14:27 84.7 °F 73.9 °F 29.75 in WSW 3.0 mph 13.0 mph 70 % 0.00 in
14:32 84.9 °F 73.6 °F 29.75 in WNW 5.0 mph 13.0 mph 69 % 0.00 in
14:37 84.0 °F 72.7 °F 29.75 in NW 9.0 mph 9.0 mph 69 % 0.00 in
14:42 82.9 °F 71.8 °F 29.75 in NW 6.0 mph 15.0 mph 69 % 0.00 in
14:47 82.4 °F 72.9 °F 29.75 in NW 4.0 mph 15.0 mph 73 % 0.00 in
14:52 82.9 °F 73.4 °F 29.75 in NNW 4.0 mph 15.0 mph 73 % 0.00 in
14:57 83.7 °F 72.3 °F 29.75 in NW 5.0 mph 14.0 mph 69 % 0.00 in
15:02 84.4 °F 73.0 °F 29.75 in WNW 6.0 mph 15.0 mph 69 % 0.00 in
15:07 84.9 °F 73.6 °F 29.75 in NW 5.0 mph 15.0 mph 69 % 0.00 in
15:12 85.5 °F 74.1 °F 29.74 in NW 5.0 mph 15.0 mph 69 % 0.00 in
15:17 85.8 °F 73.6 °F 29.74 in WNW 5.0 mph 10.0 mph 67 % 0.00 in
15:22 85.5 °F 73.8 °F 29.74 in NW 3.0 mph 10.0 mph 68 % 0.00 in
15:27 86.2 °F 73.9 °F 29.74 in WNW 2.0 mph 10.0 mph 67 % 0.00 in
15:32 86.5 °F 72.9 °F 29.74 in WNW 6.0 mph 10.0 mph 64 % 0.00 in
15:37 86.0 °F 72.3 °F 29.74 in WNW 7.0 mph 15.0 mph 64 % 0.00 in
15:42 85.6 °F 73.0 °F 29.74 in NNW 3.0 mph 15.0 mph 66 % 0.00 in
15:48 85.8 °F 72.1 °F 29.74 in NW 4.0 mph 15.0 mph 64 % 0.00 in
15:52 86.4 °F 73.6 °F 29.74 in NNW 5.0 mph 10.0 mph 66 % 0.00 in
15:57 86.5 °F 72.9 °F 29.74 in NNW 1.0 mph 11.0 mph 64 % 0.00 in
16:03 87.1 °F 72.9 °F 29.73 in NNW 5.0 mph 11.0 mph 63 % 0.00 in
16:08 86.9 °F 73.8 °F 29.73 in NW 4.0 mph 11.0 mph 65 % 0.00 in
16:13 87.3 °F 73.6 °F 29.73 in NNW 6.0 mph 10.0 mph 64 % 0.00 in
16:18 87.1 °F 73.4 °F 29.73 in NW 2.0 mph 15.0 mph 64 % 0.00 in
16:23 87.1 °F 72.5 °F 29.73 in NW 7.0 mph 15.0 mph 62 % 0.00 in
16:28 87.3 °F 73.0 °F 29.73 in NW 5.0 mph 15.0 mph 63 % 0.00 in
16:33 87.4 °F 73.2 °F 29.73 in North 7.0 mph 13.0 mph 63 % 0.00 in
16:38 87.3 °F 73.6 °F 29.73 in NNW 5.0 mph 13.0 mph 64 % 0.00 in
16:43 86.9 °F 73.2 °F 29.73 in NW 7.0 mph 13.0 mph 64 % 0.00 in
16:48 87.1 °F 72.9 °F 29.73 in NW 8.0 mph 14.0 mph 63 % 0.00 in
16:53 87.3 °F 72.7 °F 29.73 in NNW 4.0 mph 15.0 mph 62 % 0.00 in
16:58 87.3 °F 73.0 °F 29.73 in NNW 4.0 mph 15.0 mph 63 % 0.00 in
17:03 87.6 °F 73.0 °F 29.73 in WNW 5.0 mph 15.0 mph 62 % 0.00 in
17:08 87.4 °F 72.9 °F 29.73 in NW 7.0 mph 11.0 mph 62 % 0.00 in
17:13 87.3 °F 72.7 °F 29.73 in NNW 5.0 mph 11.0 mph 62 % 0.00 in
17:18 87.3 °F 73.6 °F 29.73 in WNW 6.0 mph 14.0 mph 64 % 0.00 in
17:23 87.1 °F 72.9 °F 29.73 in NW 6.0 mph 14.0 mph 63 % 0.00 in
17:28 87.1 °F 72.9 °F 29.72 in WNW 8.0 mph 14.0 mph 63 % 0.00 in
17:32 87.3 °F 73.0 °F 29.73 in NW 5.0 mph 13.0 mph 63 % 0.00 in
17:37 87.3 °F 73.0 °F 29.72 in NNW 2.0 mph 13.0 mph 63 % 0.00 in
17:42 86.7 °F 73.0 °F 29.73 in NW 4.0 mph 13.0 mph 64 % 0.00 in
17:47 86.7 °F 73.6 °F 29.72 in North 4.0 mph 11.0 mph 65 % 0.00 in
17:52 87.3 °F 73.6 °F 29.73 in WNW 4.0 mph 10.0 mph 64 % 0.00 in
17:57 86.7 °F 73.6 °F 29.73 in NNW 6.0 mph 13.0 mph 65 % 0.00 in
18:02 86.4 °F 73.2 °F 29.73 in NNW 6.0 mph 13.0 mph 65 % 0.00 in
18:07 86.2 °F 73.4 °F 29.73 in NNW 6.0 mph 13.0 mph 66 % 0.00 in
18:12 85.8 °F 73.6 °F 29.73 in NNW 4.0 mph 10.0 mph 67 % 0.00 in
18:17 86.2 °F 73.9 °F 29.73 in WNW 2.0 mph 10.0 mph 67 % 0.00 in
18:22 86.2 °F 73.4 °F 29.72 in WNW 7.0 mph 12.0 mph 66 % 0.00 in
18:27 86.5 °F 73.4 °F 29.72 in NW 6.0 mph 12.0 mph 65 % 0.00 in
18:37 86.7 °F 73.6 °F 29.72 in WNW 2.0 mph 12.0 mph 65 % 0.00 in
19:01 86.7 °F 73.6 °F 29.73 in NW 11.0 mph 12.0 mph 65 % 0.00 in
19:02 86.7 °F 73.9 °F 29.73 in NNW 5.0 mph 12.0 mph 66 % 0.00 in
19:03 86.7 °F 73.6 °F 29.73 in WNW 2.0 mph 12.0 mph 65 % 0.00 in
19:04 86.5 °F 73.8 °F 29.73 in NNW 4.0 mph 12.0 mph 66 % 0.00 in
19:05 86.5 °F 73.8 °F 29.73 in NNE 6.0 mph 12.0 mph 66 % 0.00 in
19:06 86.5 °F 73.8 °F 29.73 in NW 2.0 mph 13.0 mph 66 % 0.00 in
19:07 86.5 °F 73.8 °F 29.73 in NNW 5.0 mph 13.0 mph 66 % 0.00 in
19:08 86.5 °F 73.8 °F 29.73 in North 4.0 mph 13.0 mph 66 % 0.00 in
19:09 86.5 °F 73.8 °F 29.74 in West 2.0 mph 13.0 mph 66 % 0.00 in
19:10 86.5 °F 73.8 °F 29.74 in NW 3.0 mph 13.0 mph 66 % 0.00 in
19:11 86.5 °F 73.8 °F 29.74 in NNE 2.0 mph 13.0 mph 66 % 0.00 in
19:12 86.4 °F 73.6 °F 29.75 in ENE 8.0 mph 13.0 mph 66 % 0.00 in
19:13 86.2 °F 73.9 °F 29.75 in NW 5.0 mph 13.0 mph 67 % 0.00 in
19:14 85.6 °F 73.9 °F 29.75 in NW 10.0 mph 13.0 mph 68 % 0.00 in
19:15 84.9 °F 73.6 °F 29.75 in NNW 4.0 mph 13.0 mph 69 % 0.00 in
19:16 84.4 °F 73.9 °F 29.75 in NW 2.0 mph 18.0 mph 71 % 0.00 in
19:17 83.8 °F 74.3 °F 29.75 in North 3.0 mph 18.0 mph 73 % 0.00 in
19:18 83.5 °F 73.9 °F 29.75 in NNW 2.0 mph 18.0 mph 73 % 0.00 in
19:19 82.8 °F 73.9 °F 29.75 in NNW 1.0 mph 18.0 mph 75 % 0.00 in
19:20 82.2 °F 73.9 °F 29.75 in WNW 4.0 mph 18.0 mph 76 % 0.00 in
19:21 81.7 °F 73.4 °F 29.75 in NNW 3.0 mph 18.0 mph 76 % 0.03 in
19:22 81.0 °F 73.0 °F 29.75 in NNW 4.0 mph 18.0 mph 77 % 0.03 in
19:23 80.4 °F 72.9 °F 29.75 in NW 4.0 mph 18.0 mph 78 % 0.03 in
19:24 79.9 °F 72.9 °F 29.75 in NW 3.0 mph 18.0 mph 79 % 0.03 in
19:25 79.5 °F 72.9 °F 29.75 in WNW 1.0 mph 18.0 mph 80 % 0.03 in
19:26 79.2 °F 72.5 °F 29.75 in NW 2.0 mph 18.0 mph 80 % 0.03 in
19:27 78.6 °F 72.3 °F 29.75 in NNW 2.0 mph 18.0 mph 81 % 0.03 in
19:28 78.4 °F 72.5 °F 29.75 in WNW 1.0 mph 18.0 mph 82 % 0.03 in
19:29 78.3 °F 72.7 °F 29.75 in NNW 2.0 mph 18.0 mph 83 % 0.03 in
19:30 78.1 °F 72.5 °F 29.75 in ESE 4.0 mph 18.0 mph 83 % 0.03 in
19:31 77.9 °F 72.7 °F 29.76 in West 7.0 mph 9.0 mph 84 % 0.04 in
19:32 81.1 °F 73.2 °F 29.75 in NE 2.0 mph 18.0 mph 77 % 0.03 in
19:33 77.5 °F 73.0 °F 29.76 in NW 1.0 mph 9.0 mph 86 % 0.04 in
19:34 77.2 °F 73.0 °F 29.75 in NW 2.0 mph 9.0 mph 87 % 0.04 in
19:35 77.2 °F 73.0 °F 29.75 in NW 4.0 mph 9.0 mph 87 % 0.04 in
19:36 76.6 °F 72.9 °F 29.75 in NW 5.0 mph 9.0 mph 88 % 0.11 in
19:37 78.8 °F 72.5 °F 29.75 in NNW 1.0 mph 18.0 mph 81 % 0.03 in
19:38 76.5 °F 72.7 °F 29.75 in WNW 2.0 mph 9.0 mph 88 % 0.11 in
19:39 76.3 °F 72.9 °F 29.75 in NNW 1.0 mph 9.0 mph 89 % 0.11 in
19:40 76.3 °F 72.9 °F 29.75 in North 3.0 mph 8.0 mph 89 % 0.14 in
19:42 77.7 °F 72.9 °F 29.76 in ENE 5.0 mph 9.0 mph 85 % 0.04 in
19:47 76.6 °F 72.9 °F 29.75 in NNW 3.0 mph 9.0 mph 88 % 0.11 in
19:52 76.1 °F 72.7 °F 29.75 in NNW 2.0 mph 8.0 mph 89 % 0.14 in
19:57 75.9 °F 73.0 °F 29.75 in North 2.0 mph 8.0 mph 91 % 0.14 in
20:02 75.9 °F 73.0 °F 29.75 in Calm   8.0 mph 91 % 0.14 in
20:07 75.7 °F 72.9 °F 29.75 in Calm   5.0 mph 91 % 0.14 in
20:12 75.7 °F 73.2 °F 29.75 in Calm   3.0 mph 92 % 0.14 in
20:17 75.7 °F 73.2 °F 29.75 in Calm   2.0 mph 92 % 0.14 in
20:22 75.7 °F 73.6 °F 29.76 in Calm   2.0 mph 93 % 0.14 in
20:27 75.7 °F 73.6 °F 29.76 in Calm   2.0 mph 93 % 0.13 in
20:32 75.6 °F 73.4 °F 29.76 in Calm   2.0 mph 93 % 0.11 in
20:37 75.6 °F 73.4 °F 29.77 in Calm   1.0 mph 93 % 0.11 in
20:42 75.6 °F 73.8 °F 29.77 in Calm   1.0 mph 94 % 0.10 in
20:47 75.4 °F 73.6 °F 29.77 in Calm   1.0 mph 94 % 0.03 in
20:52 75.4 °F 73.6 °F 29.77 in Calm   2.0 mph 94 % 0.00 in
20:57 75.2 °F 73.4 °F 29.77 in Calm   2.0 mph 94 % 0.00 in
21:02 75.2 °F 73.4 °F 29.77 in Calm   2.0 mph 94 % 0.00 in
21:07 75.0 °F 73.2 °F 29.77 in Calm   1.0 mph 94 % 0.00 in
21:12 75.2 °F 73.6 °F 29.77 in Calm   1.0 mph 95 % 0.00 in
21:17 75.2 °F 73.6 °F 29.77 in Calm   1.0 mph 95 % 0.00 in
21:22 75.0 °F 73.4 °F 29.78 in Calm   1.0 mph 95 % 0.00 in
21:27 75.0 °F 73.4 °F 29.78 in Calm   1.0 mph 95 % 0.00 in
21:32 75.0 °F 73.4 °F 29.78 in Calm   1.0 mph 95 % 0.00 in
21:41 75.0 °F 73.4 °F 29.78 in NNE 1.0 mph 1.0 mph 95 % 0.00 in
21:46 74.8 °F 73.2 °F 29.78 in Calm   1.0 mph 95 % 0.00 in
21:51 75.0 °F 73.4 °F 29.78 in Calm   1.0 mph 95 % 0.00 in
21:56 75.0 °F 73.4 °F 29.78 in Calm   1.0 mph 95 % 0.00 in
22:01 74.8 °F 73.2 °F 29.79 in Calm   1.0 mph 95 % 0.00 in
22:06 74.8 °F 73.2 °F 29.79 in Calm   1.0 mph 95 % 0.00 in
22:11 74.8 °F 73.2 °F 29.79 in Calm   1.0 mph 95 % 0.00 in
22:17 74.8 °F 73.2 °F 29.79 in Calm   1.0 mph 95 % 0.00 in
22:22 74.7 °F 73.2 °F 29.79 in Calm   1.0 mph 95 % 0.00 in
22:27 74.7 °F 73.2 °F 29.80 in Calm   1.0 mph 95 % 0.00 in
22:32 74.5 °F 73.0 °F 29.80 in Calm   1.0 mph 95 % 0.00 in
22:37 74.5 °F 73.0 °F 29.80 in Calm   1.0 mph 95 % 0.00 in
22:42 74.5 °F 73.0 °F 29.80 in Calm   1.0 mph 95 % 0.00 in
22:47 74.5 °F 73.0 °F 29.80 in Calm   1.0 mph 95 % 0.00 in
22:52 74.5 °F 73.0 °F 29.80 in Calm   1.0 mph 95 % 0.00 in
22:57 74.3 °F 72.9 °F 29.80 in Calm   1.0 mph 95 % 0.00 in
23:02 74.1 °F 72.9 °F 29.80 in Calm   1.0 mph 96 % 0.00 in
23:07 74.3 °F 73.0 °F 29.80 in Calm   1.0 mph 96 % 0.00 in
23:12 74.1 °F 72.7 °F 29.81 in Calm   1.0 mph 95 % 0.00 in
23:17 74.1 °F 72.7 °F 29.80 in Calm   1.0 mph 95 % 0.00 in
23:22 74.1 °F 72.7 °F 29.81 in Calm   1.0 mph 95 % 0.00 in
23:27 73.9 °F 72.5 °F 29.81 in Calm   1.0 mph 95 % 0.00 in
23:32 73.9 °F 72.7 °F 29.80 in Calm   1.0 mph 96 % 0.00 in
23:37 73.9 °F 72.5 °F 29.81 in Calm   1.0 mph 95 % 0.00 in
23:42 73.8 °F 72.3 °F 29.81 in Calm     95 % 0.00 in
23:47 73.6 °F 72.3 °F 29.81 in Calm     96 % 0.00 in
23:52 73.6 °F 72.3 °F 29.81 in Calm   1.0 mph 96 % 0.00 in
23:57 73.6 °F 72.3 °F 29.81 in Calm   1.0 mph 96 % 0.00 in
Spring, Texas: Villages of Bridgestone
Compliments of Weather Underground - 3.25 mb

Script developed by  Jim McMurry - jmcmurry@mwt.net Adapted for the template by  Wim van der Kuil - Leuven-Template.eu

You find our weather info also at:

UK Metoffice

WeatherCloud

Weather Underground

Mid-South Weather Network

AWEKAS

Citizen Weather Observer Program (CWOP)

HAMweather, WeatherForYou, PWS Weather

Equipment we use:

Weather-station
Davis Vantage Vue

Weather-program
Meteohub

Weather-server
Debian 7.9 x86 (Guest)

Provider
DreamHost

Davis Vantage Vue

Meteohub

Debian 7.9 x86 (Guest)

DreamHost